sensor_id;sensor_type;location;lat;lon;timestamp;P1;durP1;ratioP1;P2;durP2;ratioP2
76610;SDS011;65503;48.534;9.062;2023-03-01T00:02:02;21.17;;;10.07;;
76610;SDS011;65503;48.534;9.062;2023-03-01T00:04:30;21.98;;;11.07;;
76610;SDS011;65503;48.534;9.062;2023-03-01T00:06:57;26.95;;;11.07;;
76610;SDS011;65503;48.534;9.062;2023-03-01T00:09:23;23.90;;;11.30;;
76610;SDS011;65503;48.534;9.062;2023-03-01T00:11:50;21.42;;;10.23;;
76610;SDS011;65503;48.534;9.062;2023-03-01T00:14:16;18.95;;;9.93;;
76610;SDS011;65503;48.534;9.062;2023-03-01T00:16:43;22.88;;;10.63;;
76610;SDS011;65503;48.534;9.062;2023-03-01T00:19:12;20.88;;;9.15;;
76610;SDS011;65503;48.534;9.062;2023-03-01T00:21:40;22.48;;;10.85;;
76610;SDS011;65503;48.534;9.062;2023-03-01T00:24:07;24.30;;;10.52;;
76610;SDS011;65503;48.534;9.062;2023-03-01T00:26:34;22.30;;;10.80;;
76610;SDS011;65503;48.534;9.062;2023-03-01T00:29:01;22.02;;;9.82;;
76610;SDS011;65503;48.534;9.062;2023-03-01T00:31:30;21.15;;;10.15;;
76610;SDS011;65503;48.534;9.062;2023-03-01T00:33:59;20.80;;;10.55;;
76610;SDS011;65503;48.534;9.062;2023-03-01T00:36:28;19.77;;;10.05;;
76610;SDS011;65503;48.534;9.062;2023-03-01T00:38:57;22.70;;;10.13;;
76610;SDS011;65503;48.534;9.062;2023-03-01T00:41:24;26.60;;;11.15;;
76610;SDS011;65503;48.534;9.062;2023-03-01T00:46:20;21.50;;;9.55;;
76610;SDS011;65503;48.534;9.062;2023-03-01T00:48:48;22.65;;;10.05;;
76610;SDS011;65503;48.534;9.062;2023-03-01T00:51:16;22.30;;;10.70;;
76610;SDS011;65503;48.534;9.062;2023-03-01T00:53:45;25.38;;;10.45;;
76610;SDS011;65503;48.534;9.062;2023-03-01T00:56:13;24.58;;;10.65;;
76610;SDS011;65503;48.534;9.062;2023-03-01T00:58:41;23.65;;;10.57;;
76610;SDS011;65503;48.534;9.062;2023-03-01T01:01:09;24.45;;;11.32;;
76610;SDS011;65503;48.534;9.062;2023-03-01T01:03:44;23.67;;;11.52;;
76610;SDS011;65503;48.534;9.062;2023-03-01T01:06:16;24.08;;;10.13;;
76610;SDS011;65503;48.534;9.062;2023-03-01T01:08:44;23.27;;;10.90;;
76610;SDS011;65503;48.534;9.062;2023-03-01T01:11:11;22.75;;;10.38;;
76610;SDS011;65503;48.534;9.062;2023-03-01T01:13:38;20.48;;;9.82;;
76610;SDS011;65503;48.534;9.062;2023-03-01T01:16:05;20.45;;;9.75;;
76610;SDS011;65503;48.534;9.062;2023-03-01T01:18:33;20.42;;;9.77;;
76610;SDS011;65503;48.534;9.062;2023-03-01T01:21:07;25.25;;;11.82;;
76610;SDS011;65503;48.534;9.062;2023-03-01T01:23:36;28.27;;;11.90;;
76610;SDS011;65503;48.534;9.062;2023-03-01T01:26:04;22.13;;;10.90;;
76610;SDS011;65503;48.534;9.062;2023-03-01T01:30:58;18.10;;;9.35;;
76610;SDS011;65503;48.534;9.062;2023-03-01T01:33:25;23.42;;;11.35;;
76610;SDS011;65503;48.534;9.062;2023-03-01T01:35:52;23.95;;;11.80;;
76610;SDS011;65503;48.534;9.062;2023-03-01T01:38:19;23.67;;;10.85;;
76610;SDS011;65503;48.534;9.062;2023-03-01T01:40:47;24.48;;;11.45;;
76610;SDS011;65503;48.534;9.062;2023-03-01T01:43:22;25.27;;;11.75;;
76610;SDS011;65503;48.534;9.062;2023-03-01T01:45:52;20.35;;;10.73;;
76610;SDS011;65503;48.534;9.062;2023-03-01T01:48:23;22.77;;;10.82;;
76610;SDS011;65503;48.534;9.062;2023-03-01T01:51:07;27.15;;;11.77;;
76610;SDS011;65503;48.534;9.062;2023-03-01T01:53:37;25.70;;;11.63;;
76610;SDS011;65503;48.534;9.062;2023-03-01T01:56:06;27.30;;;12.82;;
76610;SDS011;65503;48.534;9.062;2023-03-01T01:58:36;24.20;;;10.93;;
76610;SDS011;65503;48.534;9.062;2023-03-01T02:01:04;28.52;;;11.77;;
76610;SDS011;65503;48.534;9.062;2023-03-01T02:03:32;23.15;;;11.93;;
76610;SDS011;65503;48.534;9.062;2023-03-01T02:06:04;21.55;;;11.32;;
76610;SDS011;65503;48.534;9.062;2023-03-01T02:08:38;25.63;;;11.40;;
76610;SDS011;65503;48.534;9.062;2023-03-01T02:11:07;27.40;;;12.02;;
76610;SDS011;65503;48.534;9.062;2023-03-01T02:13:36;22.85;;;9.85;;
76610;SDS011;65503;48.534;9.062;2023-03-01T02:16:10;25.00;;;10.68;;
76610;SDS011;65503;48.534;9.062;2023-03-01T02:18:39;24.83;;;11.15;;
76610;SDS011;65503;48.534;9.062;2023-03-01T02:21:17;24.05;;;10.73;;
76610;SDS011;65503;48.534;9.062;2023-03-01T02:24:16;23.30;;;11.38;;
76610;SDS011;65503;48.534;9.062;2023-03-01T02:26:59;24.73;;;11.13;;
76610;SDS011;65503;48.534;9.062;2023-03-01T02:29:26;24.10;;;11.50;;
76610;SDS011;65503;48.534;9.062;2023-03-01T02:31:54;21.98;;;11.05;;
76610;SDS011;65503;48.534;9.062;2023-03-01T02:34:24;23.42;;;11.05;;
76610;SDS011;65503;48.534;9.062;2023-03-01T02:36:53;24.30;;;10.75;;
76610;SDS011;65503;48.534;9.062;2023-03-01T02:39:27;24.08;;;11.82;;
76610;SDS011;65503;48.534;9.062;2023-03-01T02:41:57;23.25;;;11.40;;
76610;SDS011;65503;48.534;9.062;2023-03-01T02:44:25;23.65;;;11.40;;
76610;SDS011;65503;48.534;9.062;2023-03-01T02:46:52;21.98;;;11.13;;
76610;SDS011;65503;48.534;9.062;2023-03-01T02:49:22;22.75;;;11.07;;
76610;SDS011;65503;48.534;9.062;2023-03-01T02:54:51;26.58;;;11.40;;
76610;SDS011;65503;48.534;9.062;2023-03-01T02:57:22;23.50;;;10.82;;
76610;SDS011;65503;48.534;9.062;2023-03-01T02:59:49;20.90;;;10.38;;
76610;SDS011;65503;48.534;9.062;2023-03-01T03:02:23;21.90;;;11.25;;
76610;SDS011;65503;48.534;9.062;2023-03-01T03:05:04;18.92;;;9.82;;
76610;SDS011;65503;48.534;9.062;2023-03-01T03:07:35;23.90;;;11.25;;
76610;SDS011;65503;48.534;9.062;2023-03-01T03:10:05;23.23;;;10.73;;
76610;SDS011;65503;48.534;9.062;2023-03-01T03:12:33;21.38;;;10.55;;
76610;SDS011;65503;48.534;9.062;2023-03-01T03:15:00;23.30;;;11.40;;
76610;SDS011;65503;48.534;9.062;2023-03-01T03:17:26;24.88;;;11.35;;
76610;SDS011;65503;48.534;9.062;2023-03-01T03:19:53;24.13;;;11.95;;
76610;SDS011;65503;48.534;9.062;2023-03-01T03:22:19;26.95;;;12.13;;
76610;SDS011;65503;48.534;9.062;2023-03-01T03:24:46;27.88;;;12.00;;
76610;SDS011;65503;48.534;9.062;2023-03-01T03:27:12;27.48;;;12.48;;
76610;SDS011;65503;48.534;9.062;2023-03-01T03:29:38;23.70;;;11.05;;
76610;SDS011;65503;48.534;9.062;2023-03-01T03:32:05;20.98;;;11.50;;
76610;SDS011;65503;48.534;9.062;2023-03-01T03:34:31;26.42;;;12.27;;
76610;SDS011;65503;48.534;9.062;2023-03-01T03:36:58;27.70;;;12.60;;
76610;SDS011;65503;48.534;9.062;2023-03-01T03:39:26;25.13;;;12.20;;
76610;SDS011;65503;48.534;9.062;2023-03-01T03:41:53;23.73;;;11.75;;
76610;SDS011;65503;48.534;9.062;2023-03-01T03:44:20;26.77;;;12.40;;
76610;SDS011;65503;48.534;9.062;2023-03-01T03:46:47;22.63;;;10.75;;
76610;SDS011;65503;48.534;9.062;2023-03-01T03:49:13;29.13;;;12.52;;
76610;SDS011;65503;48.534;9.062;2023-03-01T03:51:40;30.27;;;11.43;;
76610;SDS011;65503;48.534;9.062;2023-03-01T03:54:06;28.95;;;12.30;;
76610;SDS011;65503;48.534;9.062;2023-03-01T03:56:33;26.27;;;12.35;;
76610;SDS011;65503;48.534;9.062;2023-03-01T03:58:59;24.25;;;11.68;;
76610;SDS011;65503;48.534;9.062;2023-03-01T04:01:26;25.50;;;11.05;;
76610;SDS011;65503;48.534;9.062;2023-03-01T04:03:52;26.83;;;12.65;;
76610;SDS011;65503;48.534;9.062;2023-03-01T04:06:20;25.55;;;11.52;;
76610;SDS011;65503;48.534;9.062;2023-03-01T04:08:47;23.77;;;11.82;;
76610;SDS011;65503;48.534;9.062;2023-03-01T04:11:17;26.85;;;12.10;;
76610;SDS011;65503;48.534;9.062;2023-03-01T04:13:53;24.35;;;11.95;;
76610;SDS011;65503;48.534;9.062;2023-03-01T04:18:47;22.80;;;11.57;;
76610;SDS011;65503;48.534;9.062;2023-03-01T04:21:14;23.17;;;10.98;;
76610;SDS011;65503;48.534;9.062;2023-03-01T04:23:41;25.15;;;11.82;;
76610;SDS011;65503;48.534;9.062;2023-03-01T04:26:07;27.70;;;11.40;;
76610;SDS011;65503;48.534;9.062;2023-03-01T04:28:35;24.40;;;12.35;;
76610;SDS011;65503;48.534;9.062;2023-03-01T04:31:05;24.55;;;12.00;;
76610;SDS011;65503;48.534;9.062;2023-03-01T04:33:40;27.27;;;12.30;;
76610;SDS011;65503;48.534;9.062;2023-03-01T04:36:11;30.90;;;13.23;;
76610;SDS011;65503;48.534;9.062;2023-03-01T04:38:39;27.95;;;12.52;;
76610;SDS011;65503;48.534;9.062;2023-03-01T04:41:08;26.35;;;12.88;;
76610;SDS011;65503;48.534;9.062;2023-03-01T04:43:36;26.73;;;13.13;;
76610;SDS011;65503;48.534;9.062;2023-03-01T04:46:04;25.80;;;11.60;;
76610;SDS011;65503;48.534;9.062;2023-03-01T04:48:33;30.38;;;13.45;;
76610;SDS011;65503;48.534;9.062;2023-03-01T04:50:59;26.23;;;12.80;;
76610;SDS011;65503;48.534;9.062;2023-03-01T04:53:28;22.90;;;11.35;;
76610;SDS011;65503;48.534;9.062;2023-03-01T04:55:55;25.27;;;12.70;;
76610;SDS011;65503;48.534;9.062;2023-03-01T04:58:26;27.65;;;12.75;;
76610;SDS011;65503;48.534;9.062;2023-03-01T05:00:53;23.20;;;11.18;;
76610;SDS011;65503;48.534;9.062;2023-03-01T05:03:20;26.25;;;12.27;;
76610;SDS011;65503;48.534;9.062;2023-03-01T05:05:48;25.70;;;12.07;;
76610;SDS011;65503;48.534;9.062;2023-03-01T05:10:50;26.83;;;11.65;;
76610;SDS011;65503;48.534;9.062;2023-03-01T05:13:19;27.92;;;11.45;;
76610;SDS011;65503;48.534;9.062;2023-03-01T05:15:55;25.75;;;11.18;;
76610;SDS011;65503;48.534;9.062;2023-03-01T05:18:23;27.65;;;12.45;;
76610;SDS011;65503;48.534;9.062;2023-03-01T05:21:02;26.65;;;12.43;;
76610;SDS011;65503;48.534;9.062;2023-03-01T05:23:31;29.17;;;12.43;;
76610;SDS011;65503;48.534;9.062;2023-03-01T05:25:59;24.67;;;12.27;;
76610;SDS011;65503;48.534;9.062;2023-03-01T05:28:27;28.77;;;13.18;;
76610;SDS011;65503;48.534;9.062;2023-03-01T05:30:54;25.60;;;12.25;;
76610;SDS011;65503;48.534;9.062;2023-03-01T05:33:22;24.02;;;11.55;;
76610;SDS011;65503;48.534;9.062;2023-03-01T05:35:49;25.52;;;13.02;;
76610;SDS011;65503;48.534;9.062;2023-03-01T05:38:17;27.83;;;13.05;;
76610;SDS011;65503;48.534;9.062;2023-03-01T05:40:45;27.17;;;12.77;;
76610;SDS011;65503;48.534;9.062;2023-03-01T05:43:13;24.77;;;11.65;;
76610;SDS011;65503;48.534;9.062;2023-03-01T05:45:42;25.55;;;11.13;;
76610;SDS011;65503;48.534;9.062;2023-03-01T05:48:09;28.20;;;12.98;;
76610;SDS011;65503;48.534;9.062;2023-03-01T05:50:39;29.73;;;13.82;;
76610;SDS011;65503;48.534;9.062;2023-03-01T05:53:13;31.30;;;14.32;;
76610;SDS011;65503;48.534;9.062;2023-03-01T05:55:45;29.58;;;14.35;;
76610;SDS011;65503;48.534;9.062;2023-03-01T05:58:14;29.60;;;13.90;;
76610;SDS011;65503;48.534;9.062;2023-03-01T06:00:46;30.45;;;14.13;;
76610;SDS011;65503;48.534;9.062;2023-03-01T06:03:15;30.15;;;12.95;;
76610;SDS011;65503;48.534;9.062;2023-03-01T06:05:43;29.27;;;13.93;;
76610;SDS011;65503;48.534;9.062;2023-03-01T06:08:11;29.70;;;12.85;;
76610;SDS011;65503;48.534;9.062;2023-03-01T06:10:38;30.45;;;13.27;;
76610;SDS011;65503;48.534;9.062;2023-03-01T06:13:05;27.80;;;14.23;;
76610;SDS011;65503;48.534;9.062;2023-03-01T06:15:31;27.27;;;13.35;;
76610;SDS011;65503;48.534;9.062;2023-03-01T06:17:58;26.92;;;13.82;;
76610;SDS011;65503;48.534;9.062;2023-03-01T06:20:26;28.38;;;13.88;;
76610;SDS011;65503;48.534;9.062;2023-03-01T06:22:54;29.23;;;13.70;;
76610;SDS011;65503;48.534;9.062;2023-03-01T06:25:22;28.52;;;13.13;;
76610;SDS011;65503;48.534;9.062;2023-03-01T06:27:49;26.65;;;12.00;;
76610;SDS011;65503;48.534;9.062;2023-03-01T06:30:19;28.00;;;13.15;;
76610;SDS011;65503;48.534;9.062;2023-03-01T06:32:47;30.40;;;14.27;;
76610;SDS011;65503;48.534;9.062;2023-03-01T06:35:14;27.55;;;13.38;;
76610;SDS011;65503;48.534;9.062;2023-03-01T06:37:44;29.02;;;12.75;;
76610;SDS011;65503;48.534;9.062;2023-03-01T06:40:11;26.85;;;13.35;;
76610;SDS011;65503;48.534;9.062;2023-03-01T06:42:40;30.40;;;14.02;;
76610;SDS011;65503;48.534;9.062;2023-03-01T06:45:10;25.75;;;13.65;;
76610;SDS011;65503;48.534;9.062;2023-03-01T06:47:37;28.83;;;13.98;;
76610;SDS011;65503;48.534;9.062;2023-03-01T06:50:03;29.60;;;13.93;;
76610;SDS011;65503;48.534;9.062;2023-03-01T06:52:30;26.50;;;12.80;;
76610;SDS011;65503;48.534;9.062;2023-03-01T06:54:56;28.33;;;13.05;;
76610;SDS011;65503;48.534;9.062;2023-03-01T06:57:23;27.70;;;13.73;;
76610;SDS011;65503;48.534;9.062;2023-03-01T06:59:49;27.45;;;12.85;;
76610;SDS011;65503;48.534;9.062;2023-03-01T07:02:16;27.40;;;13.82;;
76610;SDS011;65503;48.534;9.062;2023-03-01T07:04:42;28.30;;;13.23;;
76610;SDS011;65503;48.534;9.062;2023-03-01T07:07:09;26.80;;;12.95;;
76610;SDS011;65503;48.534;9.062;2023-03-01T07:09:36;28.48;;;13.52;;
76610;SDS011;65503;48.534;9.062;2023-03-01T07:12:02;27.38;;;13.13;;
76610;SDS011;65503;48.534;9.062;2023-03-01T07:14:29;26.00;;;13.35;;
76610;SDS011;65503;48.534;9.062;2023-03-01T07:16:56;25.85;;;13.65;;
76610;SDS011;65503;48.534;9.062;2023-03-01T07:19:22;23.95;;;12.60;;
76610;SDS011;65503;48.534;9.062;2023-03-01T07:21:49;24.75;;;12.18;;
76610;SDS011;65503;48.534;9.062;2023-03-01T07:24:15;27.08;;;13.50;;
76610;SDS011;65503;48.534;9.062;2023-03-01T07:26:42;27.17;;;14.15;;
76610;SDS011;65503;48.534;9.062;2023-03-01T07:29:09;27.95;;;13.02;;
76610;SDS011;65503;48.534;9.062;2023-03-01T07:31:36;24.13;;;12.48;;
76610;SDS011;65503;48.534;9.062;2023-03-01T07:34:02;25.67;;;12.75;;
76610;SDS011;65503;48.534;9.062;2023-03-01T07:36:29;25.63;;;12.35;;
76610;SDS011;65503;48.534;9.062;2023-03-01T07:38:56;24.63;;;12.55;;
76610;SDS011;65503;48.534;9.062;2023-03-01T07:41:24;28.70;;;13.25;;
76610;SDS011;65503;48.534;9.062;2023-03-01T07:43:50;28.00;;;13.13;;
76610;SDS011;65503;48.534;9.062;2023-03-01T07:46:17;25.42;;;12.30;;
76610;SDS011;65503;48.534;9.062;2023-03-01T07:48:45;24.40;;;12.63;;
76610;SDS011;65503;48.534;9.062;2023-03-01T07:51:11;26.02;;;13.23;;
76610;SDS011;65503;48.534;9.062;2023-03-01T07:53:38;23.65;;;12.68;;
76610;SDS011;65503;48.534;9.062;2023-03-01T07:56:07;24.63;;;12.50;;
76610;SDS011;65503;48.534;9.062;2023-03-01T07:58:35;25.75;;;13.95;;
76610;SDS011;65503;48.534;9.062;2023-03-01T08:01:06;24.80;;;11.98;;
76610;SDS011;65503;48.534;9.062;2023-03-01T08:03:35;27.25;;;13.55;;
76610;SDS011;65503;48.534;9.062;2023-03-01T08:06:03;30.17;;;13.68;;
76610;SDS011;65503;48.534;9.062;2023-03-01T08:08:31;25.20;;;13.27;;
76610;SDS011;65503;48.534;9.062;2023-03-01T08:10:59;24.95;;;14.23;;
76610;SDS011;65503;48.534;9.062;2023-03-01T08:13:26;27.00;;;13.80;;
76610;SDS011;65503;48.534;9.062;2023-03-01T08:15:53;25.85;;;13.07;;
76610;SDS011;65503;48.534;9.062;2023-03-01T08:18:20;24.55;;;13.40;;
76610;SDS011;65503;48.534;9.062;2023-03-01T08:20:47;22.88;;;13.38;;
76610;SDS011;65503;48.534;9.062;2023-03-01T08:23:14;24.95;;;13.32;;
76610;SDS011;65503;48.534;9.062;2023-03-01T08:25:40;26.33;;;13.57;;
76610;SDS011;65503;48.534;9.062;2023-03-01T08:28:07;23.77;;;12.82;;
76610;SDS011;65503;48.534;9.062;2023-03-01T08:30:34;25.55;;;15.68;;
76610;SDS011;65503;48.534;9.062;2023-03-01T08:33:00;25.83;;;14.02;;
76610;SDS011;65503;48.534;9.062;2023-03-01T08:35:27;27.67;;;13.95;;
76610;SDS011;65503;48.534;9.062;2023-03-01T08:37:54;24.55;;;13.30;;
76610;SDS011;65503;48.534;9.062;2023-03-01T08:40:21;25.55;;;14.27;;
76610;SDS011;65503;48.534;9.062;2023-03-01T08:42:47;23.83;;;12.95;;
76610;SDS011;65503;48.534;9.062;2023-03-01T08:45:13;25.70;;;13.75;;
76610;SDS011;65503;48.534;9.062;2023-03-01T08:47:44;29.80;;;13.50;;
76610;SDS011;65503;48.534;9.062;2023-03-01T08:50:11;25.15;;;14.05;;
76610;SDS011;65503;48.534;9.062;2023-03-01T08:52:40;27.20;;;14.38;;
76610;SDS011;65503;48.534;9.062;2023-03-01T08:55:10;26.42;;;14.35;;
76610;SDS011;65503;48.534;9.062;2023-03-01T08:57:36;23.00;;;12.27;;
76610;SDS011;65503;48.534;9.062;2023-03-01T09:00:03;29.90;;;15.07;;
76610;SDS011;65503;48.534;9.062;2023-03-01T09:02:34;24.45;;;14.15;;
76610;SDS011;65503;48.534;9.062;2023-03-01T09:05:01;25.75;;;15.00;;
76610;SDS011;65503;48.534;9.062;2023-03-01T09:07:27;22.83;;;13.88;;
76610;SDS011;65503;48.534;9.062;2023-03-01T09:09:56;25.55;;;13.27;;
76610;SDS011;65503;48.534;9.062;2023-03-01T09:12:23;26.20;;;14.70;;
76610;SDS011;65503;48.534;9.062;2023-03-01T09:14:51;24.20;;;13.90;;
76610;SDS011;65503;48.534;9.062;2023-03-01T09:17:17;25.65;;;15.23;;
76610;SDS011;65503;48.534;9.062;2023-03-01T09:19:43;26.23;;;14.57;;
76610;SDS011;65503;48.534;9.062;2023-03-01T09:22:10;28.45;;;14.65;;
76610;SDS011;65503;48.534;9.062;2023-03-01T09:24:37;25.33;;;13.35;;
76610;SDS011;65503;48.534;9.062;2023-03-01T09:27:03;24.10;;;13.60;;
76610;SDS011;65503;48.534;9.062;2023-03-01T09:29:31;23.20;;;12.88;;
76610;SDS011;65503;48.534;9.062;2023-03-01T09:31:57;26.58;;;14.40;;
76610;SDS011;65503;48.534;9.062;2023-03-01T09:34:24;24.35;;;13.48;;
76610;SDS011;65503;48.534;9.062;2023-03-01T09:36:51;24.90;;;13.18;;
76610;SDS011;65503;48.534;9.062;2023-03-01T09:39:17;26.25;;;15.73;;
76610;SDS011;65503;48.534;9.062;2023-03-01T09:44:32;26.02;;;14.43;;
76610;SDS011;65503;48.534;9.062;2023-03-01T09:47:04;25.08;;;14.60;;
76610;SDS011;65503;48.534;9.062;2023-03-01T09:49:31;23.13;;;13.52;;
76610;SDS011;65503;48.534;9.062;2023-03-01T09:54:55;23.60;;;14.13;;
76610;SDS011;65503;48.534;9.062;2023-03-01T09:57:30;30.35;;;15.20;;
76610;SDS011;65503;48.534;9.062;2023-03-01T10:02:49;25.25;;;14.65;;
76610;SDS011;65503;48.534;9.062;2023-03-01T10:10:53;25.10;;;13.80;;
76610;SDS011;65503;48.534;9.062;2023-03-01T10:13:22;23.77;;;14.32;;
76610;SDS011;65503;48.534;9.062;2023-03-01T10:15:54;26.23;;;14.82;;
76610;SDS011;65503;48.534;9.062;2023-03-01T10:18:27;26.70;;;14.25;;
76610;SDS011;65503;48.534;9.062;2023-03-01T10:23:27;26.02;;;14.23;;
76610;SDS011;65503;48.534;9.062;2023-03-01T10:31:26;26.92;;;14.35;;
76610;SDS011;65503;48.534;9.062;2023-03-01T10:34:10;25.20;;;13.98;;
76610;SDS011;65503;48.534;9.062;2023-03-01T10:36:40;25.63;;;13.93;;
76610;SDS011;65503;48.534;9.062;2023-03-01T10:39:15;27.23;;;14.82;;
76610;SDS011;65503;48.534;9.062;2023-03-01T10:42:03;25.95;;;14.15;;
76610;SDS011;65503;48.534;9.062;2023-03-01T10:44:36;23.45;;;13.80;;
76610;SDS011;65503;48.534;9.062;2023-03-01T10:47:05;22.95;;;13.77;;
76610;SDS011;65503;48.534;9.062;2023-03-01T10:53:01;27.60;;;14.77;;
76610;SDS011;65503;48.534;9.062;2023-03-01T10:55:33;29.80;;;14.57;;
76610;SDS011;65503;48.534;9.062;2023-03-01T11:00:57;29.13;;;15.85;;
76610;SDS011;65503;48.534;9.062;2023-03-01T11:03:27;25.02;;;13.23;;
76610;SDS011;65503;48.534;9.062;2023-03-01T11:06:00;23.52;;;13.52;;
76610;SDS011;65503;48.534;9.062;2023-03-01T11:08:43;25.85;;;14.30;;
76610;SDS011;65503;48.534;9.062;2023-03-01T11:13:59;24.70;;;13.75;;
76610;SDS011;65503;48.534;9.062;2023-03-01T11:19:42;24.77;;;12.75;;
76610;SDS011;65503;48.534;9.062;2023-03-01T11:22:22;27.10;;;14.23;;
76610;SDS011;65503;48.534;9.062;2023-03-01T11:24:50;25.67;;;14.05;;
76610;SDS011;65503;48.534;9.062;2023-03-01T11:27:35;25.98;;;14.45;;
76610;SDS011;65503;48.534;9.062;2023-03-01T11:30:07;23.23;;;13.25;;
76610;SDS011;65503;48.534;9.062;2023-03-01T11:35:42;24.17;;;12.73;;
76610;SDS011;65503;48.534;9.062;2023-03-01T11:40:45;24.98;;;13.07;;
76610;SDS011;65503;48.534;9.062;2023-03-01T11:51:42;29.17;;;13.45;;
76610;SDS011;65503;48.534;9.062;2023-03-01T12:03:08;22.77;;;12.10;;
76610;SDS011;65503;48.534;9.062;2023-03-01T12:08:42;22.80;;;12.45;;
76610;SDS011;65503;48.534;9.062;2023-03-01T12:11:21;24.02;;;12.30;;
76610;SDS011;65503;48.534;9.062;2023-03-01T12:22:05;22.30;;;12.10;;
76610;SDS011;65503;48.534;9.062;2023-03-01T12:24:53;22.00;;;12.27;;
76610;SDS011;65503;48.534;9.062;2023-03-01T12:30:36;20.17;;;11.50;;
76610;SDS011;65503;48.534;9.062;2023-03-01T12:38:42;25.40;;;12.02;;
76610;SDS011;65503;48.534;9.062;2023-03-01T12:52:15;19.23;;;10.45;;
76610;SDS011;65503;48.534;9.062;2023-03-01T12:54:49;20.40;;;11.60;;
76610;SDS011;65503;48.534;9.062;2023-03-01T13:00:22;20.58;;;11.88;;
76610;SDS011;65503;48.534;9.062;2023-03-01T13:02:58;18.02;;;11.05;;
76610;SDS011;65503;48.534;9.062;2023-03-01T13:05:34;22.90;;;10.77;;
76610;SDS011;65503;48.534;9.062;2023-03-01T13:08:13;19.85;;;10.77;;
76610;SDS011;65503;48.534;9.062;2023-03-01T13:10:49;19.83;;;10.48;;
76610;SDS011;65503;48.534;9.062;2023-03-01T13:13:25;19.00;;;10.18;;
76610;SDS011;65503;48.534;9.062;2023-03-01T13:15:53;21.88;;;11.60;;
76610;SDS011;65503;48.534;9.062;2023-03-01T13:20:52;19.67;;;11.20;;
76610;SDS011;65503;48.534;9.062;2023-03-01T13:31:09;24.80;;;12.77;;
76610;SDS011;65503;48.534;9.062;2023-03-01T13:33:47;20.95;;;11.52;;
76610;SDS011;65503;48.534;9.062;2023-03-01T13:46:59;22.17;;;11.73;;
76610;SDS011;65503;48.534;9.062;2023-03-01T13:49:41;23.05;;;12.88;;
76610;SDS011;65503;48.534;9.062;2023-03-01T13:55:06;22.67;;;11.55;;
76610;SDS011;65503;48.534;9.062;2023-03-01T13:57:41;22.85;;;12.15;;
76610;SDS011;65503;48.534;9.062;2023-03-01T14:00:26;23.27;;;12.73;;
76610;SDS011;65503;48.534;9.062;2023-03-01T14:03:00;20.02;;;11.20;;
76610;SDS011;65503;48.534;9.062;2023-03-01T14:05:42;24.15;;;12.38;;
76610;SDS011;65503;48.534;9.062;2023-03-01T14:08:38;22.38;;;12.05;;
76610;SDS011;65503;48.534;9.062;2023-03-01T14:13:48;22.85;;;12.95;;
76610;SDS011;65503;48.534;9.062;2023-03-01T14:19:06;23.05;;;12.55;;
76610;SDS011;65503;48.534;9.062;2023-03-01T14:22:13;20.90;;;11.35;;
76610;SDS011;65503;48.534;9.062;2023-03-01T14:25:02;22.08;;;13.07;;
76610;SDS011;65503;48.534;9.062;2023-03-01T14:27:35;22.02;;;11.73;;
76610;SDS011;65503;48.534;9.062;2023-03-01T14:30:19;22.42;;;12.48;;
76610;SDS011;65503;48.534;9.062;2023-03-01T14:32:57;25.92;;;12.80;;
76610;SDS011;65503;48.534;9.062;2023-03-01T14:35:26;24.67;;;12.90;;
76610;SDS011;65503;48.534;9.062;2023-03-01T14:37:54;22.63;;;12.50;;
76610;SDS011;65503;48.534;9.062;2023-03-01T14:40:31;20.30;;;12.25;;
76610;SDS011;65503;48.534;9.062;2023-03-01T14:43:01;20.65;;;11.90;;
76610;SDS011;65503;48.534;9.062;2023-03-01T14:45:36;23.10;;;12.82;;
76610;SDS011;65503;48.534;9.062;2023-03-01T14:48:03;21.60;;;11.38;;
76610;SDS011;65503;48.534;9.062;2023-03-01T14:50:32;23.45;;;13.18;;
76610;SDS011;65503;48.534;9.062;2023-03-01T14:53:01;20.40;;;11.75;;
76610;SDS011;65503;48.534;9.062;2023-03-01T14:57:59;22.65;;;13.05;;
76610;SDS011;65503;48.534;9.062;2023-03-01T15:00:29;22.58;;;12.40;;
76610;SDS011;65503;48.534;9.062;2023-03-01T15:02:58;22.60;;;11.70;;
76610;SDS011;65503;48.534;9.062;2023-03-01T15:05:29;21.67;;;10.93;;
76610;SDS011;65503;48.534;9.062;2023-03-01T15:07:58;20.92;;;11.90;;
76610;SDS011;65503;48.534;9.062;2023-03-01T15:10:55;20.70;;;10.65;;
76610;SDS011;65503;48.534;9.062;2023-03-01T15:13:24;21.27;;;12.50;;
76610;SDS011;65503;48.534;9.062;2023-03-01T15:16:00;22.25;;;10.65;;
76610;SDS011;65503;48.534;9.062;2023-03-01T15:18:30;22.38;;;11.10;;
76610;SDS011;65503;48.534;9.062;2023-03-01T15:21:05;19.25;;;10.50;;
76610;SDS011;65503;48.534;9.062;2023-03-01T15:23:42;21.48;;;11.63;;
76610;SDS011;65503;48.534;9.062;2023-03-01T15:26:31;26.33;;;13.40;;
76610;SDS011;65503;48.534;9.062;2023-03-01T15:29:01;19.42;;;10.93;;
76610;SDS011;65503;48.534;9.062;2023-03-01T15:31:29;19.55;;;11.45;;
76610;SDS011;65503;48.534;9.062;2023-03-01T15:39:26;25.95;;;12.55;;
76610;SDS011;65503;48.534;9.062;2023-03-01T15:42:07;21.30;;;12.00;;
76610;SDS011;65503;48.534;9.062;2023-03-01T15:44:44;19.85;;;11.35;;
76610;SDS011;65503;48.534;9.062;2023-03-01T15:47:23;19.05;;;11.30;;
76610;SDS011;65503;48.534;9.062;2023-03-01T15:49:53;23.00;;;12.23;;
76610;SDS011;65503;48.534;9.062;2023-03-01T15:52:32;24.20;;;11.75;;
76610;SDS011;65503;48.534;9.062;2023-03-01T15:55:06;19.45;;;11.27;;
76610;SDS011;65503;48.534;9.062;2023-03-01T15:57:47;23.55;;;11.32;;
76610;SDS011;65503;48.534;9.062;2023-03-01T16:00:14;20.95;;;11.13;;
76610;SDS011;65503;48.534;9.062;2023-03-01T16:02:43;20.17;;;12.07;;
76610;SDS011;65503;48.534;9.062;2023-03-01T16:05:19;23.85;;;12.20;;
76610;SDS011;65503;48.534;9.062;2023-03-01T16:07:49;22.30;;;12.82;;
76610;SDS011;65503;48.534;9.062;2023-03-01T16:10:16;24.65;;;12.13;;
76610;SDS011;65503;48.534;9.062;2023-03-01T16:12:44;25.95;;;11.95;;
76610;SDS011;65503;48.534;9.062;2023-03-01T16:15:17;24.38;;;12.50;;
76610;SDS011;65503;48.534;9.062;2023-03-01T16:17:58;22.58;;;11.32;;
76610;SDS011;65503;48.534;9.062;2023-03-01T16:20:24;22.63;;;12.00;;
76610;SDS011;65503;48.534;9.062;2023-03-01T16:22:54;23.05;;;12.77;;
76610;SDS011;65503;48.534;9.062;2023-03-01T16:25:21;21.83;;;11.48;;
76610;SDS011;65503;48.534;9.062;2023-03-01T16:27:48;20.30;;;11.15;;
76610;SDS011;65503;48.534;9.062;2023-03-01T16:30:17;21.95;;;11.60;;
76610;SDS011;65503;48.534;9.062;2023-03-01T16:32:47;25.02;;;11.75;;
76610;SDS011;65503;48.534;9.062;2023-03-01T16:37:42;21.27;;;11.38;;
76610;SDS011;65503;48.534;9.062;2023-03-01T16:40:17;24.30;;;11.82;;
76610;SDS011;65503;48.534;9.062;2023-03-01T16:42:53;22.15;;;11.48;;
76610;SDS011;65503;48.534;9.062;2023-03-01T16:45:27;25.05;;;11.70;;
76610;SDS011;65503;48.534;9.062;2023-03-01T16:47:54;23.13;;;10.95;;
76610;SDS011;65503;48.534;9.062;2023-03-01T16:50:21;21.73;;;10.70;;
76610;SDS011;65503;48.534;9.062;2023-03-01T16:52:48;22.67;;;11.50;;
76610;SDS011;65503;48.534;9.062;2023-03-01T16:55:15;22.75;;;11.63;;
76610;SDS011;65503;48.534;9.062;2023-03-01T16:57:41;22.90;;;11.30;;
76610;SDS011;65503;48.534;9.062;2023-03-01T17:00:08;21.50;;;10.95;;
76610;SDS011;65503;48.534;9.062;2023-03-01T17:02:37;20.02;;;10.70;;